RJFKRJBD

Guest
Details From RJFK - KAGOSHIMA
To RJBD - NANKI SHIRAHAMA
Flight Number -
Tags generated
Created
Modified
Stats Distance 261 nm / 484 km
Max Altitude 27,300 ft / 8,321 m
Waypoints 5
Social Downloads 0
Likes 0
Share VATSIM

Download

Looking for another format? Having issues loading an existing format? Contact us
Advertisement - Login to hide

Notes

Basic altitude profile: - Ascent Rate: 2500ft/min - Ascent Speed: 250kts - Cruise Altitude: 35000ft - Cruise Speed: 420kts - Descent Rate: 1500ft/min - Descent Speed: 250kts Options: - Use NATs: yes - Use PACOTS: yes - Use low airways: yes - Use high airways: yes

Route

RJFK FENIX A1 JAKAL RJBD

ID Type Via Altitude Latitude Longitude Leg Dist Tot Dist Heading (true) Name
O RJFK APT - 0 ft / 0 m 31.80340˚ 130.71941˚ - 0 nm - KAGOSHIMA
FENIX FIX - 17,400 ft / 5,304 m 32.14178˚ 131.59147˚ 48 nm 48 nm 65° / 66° -
SUC VOR A1 (AWY-LO) 27,300 ft / 8,321 m 32.75597˚ 132.99664˚ 80 nm 129 nm 62° / 63° SHIMIZU VOR-DME
JAKAL FIX A1 (AWY-HI) 13,300 ft / 4,054 m 33.06203˚ 134.23425˚ 65 nm 194 nm 73° / 74° -
O RJBD APT - 0 ft / 0 m 33.66396˚ 135.36002˚ 67 nm 261 nm 57° / 58° NANKI SHIRAHAMA

Altitude Profile

Advertisement - Login to hide

Weather


0- 5 10 15 20 25 30 35+ Temperature / ° C

Clouds and Precipitation
Forecast for 2017-12-13 12:00 UTC. Updated 17 minutes ago

Ground ~20,000 ft ~40,000 ft Winds

RJFK

Details ICAO RJFK (KOJ)
Name KAGOSHIMA
Region Japan
Timezone Asia/Tokyo (UTC+9.0)
Stats Elevation 906 ft / 276 m (AMSL)
Location 31.803400° 130.719405°
Runways 1
Magnetic Variation 6.911° W

METAR

RJFK 131100Z 34009KT 9999 FEW035 01/M06 Q1025

Decode

TAF

TAF RJFK 130505Z 1306/1412 33011KT 9999 FEW040 BECMG 1400/1403 09006KT

Decode

Departure Runways

ID Width Length Bearing (true) Bearing (mag) Surface Threshold Offset Overrun Length
16 150 ft / 46 m 9,861 ft / 3,006 m 150.11° 157.02° Asphalt 0 ft / 0 m 200 ft / 61 m
34 150 ft / 46 m 9,861 ft / 3,006 m 330.11° 337.02° Asphalt 0 ft / 0 m 200 ft / 61 m

RJBD

Details ICAO RJBD (SHM)
Name NANKI SHIRAHAMA
Region Japan
Timezone Asia/Tokyo (UTC+9.0)
Stats Elevation 298 ft / 91 m (AMSL)
Location 33.663960° 135.360019°
Runways 2
Magnetic Variation 7.324° W

METAR

RJBD 131000Z 32018KT 9999 FEW040 BKN060 06/M03 Q1020

Decode

TAF

Not found

Destination Runways

ID Width Length Bearing (true) Bearing (mag) Surface Threshold Offset Overrun Length
15 148 ft / 45 m 6,569 ft / 2,002 m 141.10° 148.42° Asphalt 0 ft / 0 m 213 ft / 65 m
16 98 ft / 30 m 4,325 ft / 1,318 m 157.25° 164.57° Asphalt 186 ft / 57 m 0 ft / 0 m
33 148 ft / 45 m 6,569 ft / 2,002 m 321.10° 328.42° Asphalt 0 ft / 0 m 218 ft / 66 m
34 98 ft / 30 m 4,325 ft / 1,318 m 337.25° 344.57° Asphalt 193 ft / 59 m 0 ft / 0 m